Time;durP1;ratioP1;P1;durP2;ratioP2;P2;SDS_P1;SDS_P2;PMS_P1;PMS_P2;Temp;Humidity;BMP_temperature;BMP_pressure;BME280_temperature;BME280_humidity;BME280_pressure;Samples;Min_cycle;Max_cycle;Signal;HPM_P1;HPM_P2
2022/06/17 04:07:43;;;;;;;;;;;;;;;25.64;43.72;97440.31;4242971;27;10243;-64
2022/06/17 04:09:48;;;;;;;;;;;;;;;25.87;43.67;97445.16;4215332;28;5781;-64
2022/06/17 04:11:56;;;;;;;;;;;;;;;26.08;43.23;97449.44;4230149;28;5671;-64
2022/06/17 04:14:24;;;;;;;;;;;;;;;26.23;43.04;97445.03;4230273;28;5692;-64
2022/06/17 04:16:35;;;;;;;;;;;;;;;26.33;43.09;97450.41;4197944;28;5809;-65
2022/06/17 04:18:39;;;;;;;;;;;;;;;26.43;42.90;97453.09;4226761;28;5692;-65
2022/06/17 04:20:45;;;;;;;;;;;;;;;26.49;43.16;97454.69;4230276;28;5676;-64
2022/06/17 04:22:52;;;;;;;;;;;;;;;26.55;42.76;97453.59;4231276;28;5735;-64
2022/06/17 04:25:00;;;;;;;;;;;;;;;26.60;43.16;97461.66;4214561;28;5681;-64
2022/06/17 04:27:06;;;;;;;;;;;;;;;26.66;42.63;97460.56;4212899;28;5875;-65
2022/06/17 04:29:15;;;;;;;;;;;;;;;26.67;42.92;97454.03;4214568;28;5697;-65
2022/06/17 04:31:21;;;;;;;;;;;;;;;26.70;42.91;97463.53;4214593;28;5974;-64
2022/06/17 04:33:27;;;;;;;;;;;;;;;26.72;42.57;97468.66;4197992;28;5836;-65
2022/06/17 04:35:38;;;;;;;;;;;;;;;26.75;42.82;97465.41;4197749;28;5107;-65
2022/06/17 04:37:42;;;;;;;;;;;;;;;26.78;42.60;97465.66;4197648;28;5738;-65
2022/06/17 04:39:50;;;;;;;;;;;;;;;26.79;42.71;97466.47;4196183;28;5806;-64
2022/06/17 04:41:58;;;;;;;;;;;;;;;26.81;42.70;97481.34;4196291;28;5718;-64
2022/06/17 04:44:04;;;;;;;;;;;;;;;26.84;42.58;97471.84;4200691;28;5726;-65
2022/06/17 04:46:14;;;;;;;;;;;;;;;26.86;42.31;97477.81;4208299;28;5734;-64
2022/06/17 04:48:19;;;;;;;;;;;;;;;26.89;42.28;97471.81;4197488;28;5770;-64
2022/06/17 04:50:25;;;;;;;;;;;;;;;26.92;42.53;97482.91;4198417;28;5743;-64
2022/06/17 04:52:34;;;;;;;;;;;;;;;26.94;42.16;97479.91;4208495;28;5807;-64
2022/06/17 04:54:41;;;;;;;;;;;;;;;26.95;42.25;97476.09;4201831;28;5801;-65
2022/06/17 04:56:49;;;;;;;;;;;;;;;26.94;42.39;97479.91;4207774;28;5773;-65
2022/06/17 04:58:53;;;;;;;;;;;;;;;26.95;42.02;97482.34;4209669;28;5070;-65
2022/06/17 05:00:57;;;;;;;;;;;;;;;26.94;42.48;97485.34;4223053;28;5668;-65
2022/06/17 05:03:00;;;;;;;;;;;;;;;26.93;42.39;97489.16;4231184;28;5683;-64
2022/06/17 05:05:07;;;;;;;;;;;;;;;26.91;42.50;97480.47;4225658;28;5676;-64
2022/06/17 05:07:11;;;;;;;;;;;;;;;26.92;42.57;97487.53;4225606;28;5981;-65
2022/06/17 05:09:21;;;;;;;;;;;;;;;26.92;42.29;97487.53;4193257;28;5700;-65
2022/06/17 05:11:29;;;;;;;;;;;;;;;26.91;42.58;97496.75;4192592;28;5739;-64
2022/06/17 05:13:39;;;;;;;;;;;;;;;26.91;42.22;97494.03;4210897;28;5717;-65
2022/06/17 05:15:43;;;;;;;;;;;;;;;26.93;42.40;97494.56;4219790;28;5680;-64
2022/06/17 05:17:47;;;;;;;;;;;;;;;26.95;42.29;97497.81;4207923;28;5752;-64
2022/06/17 05:19:50;;;;;;;;;;;;;;;27.01;42.23;97491.28;4197072;28;7760;-64
2022/06/17 05:21:54;;;;;;;;;;;;;;;27.05;42.01;97499.69;4186468;28;5728;-64
2022/06/17 05:23:59;;;;;;;;;;;;;;;27.07;41.96;97494.78;4194583;28;5832;-65
2022/06/17 05:26:02;;;;;;;;;;;;;;;27.10;42.21;97499.66;4186490;28;5714;-64
2022/06/17 05:28:07;;;;;;;;;;;;;;;27.16;41.86;97499.31;4198244;28;5713;-64
2022/06/17 05:30:12;;;;;;;;;;;;;;;27.24;42.13;97509.59;4188036;28;5819;-63
2022/06/17 05:32:20;;;;;;;;;;;;;;;27.33;42.12;97503.56;4192735;28;5766;-64
2022/06/17 05:34:23;;;;;;;;;;;;;;;27.44;41.99;97505.09;4192942;28;5714;-64
2022/06/17 05:36:26;;;;;;;;;;;;;;;27.48;41.81;97500.72;4196058;28;5686;-65
2022/06/17 05:38:30;;;;;;;;;;;;;;;27.53;41.74;97508.81;4202134;28;5753;-65
2022/06/17 05:40:35;;;;;;;;;;;;;;;27.58;41.74;97510.69;4203829;28;5721;-76
2022/06/17 05:42:43;;;;;;;;;;;;;;;27.67;41.63;97509.00;4204044;28;5705;-76
2022/06/17 05:44:47;;;;;;;;;;;;;;;27.75;41.53;97516.53;4203517;28;5805;-76
2022/06/17 05:46:51;;;;;;;;;;;;;;;27.88;41.33;97523.22;4212678;28;5672;-77
2022/06/17 05:48:54;;;;;;;;;;;;;;;28.00;41.21;97529.06;4203434;28;5694;-77
2022/06/17 05:50:57;;;;;;;;;;;;;;;28.08;41.02;97528.41;4203536;28;5817;-76
2022/06/17 05:53:02;;;;;;;;;;;;;;;28.16;41.17;97527.78;4202945;28;5710;-76
2022/06/17 05:55:06;;;;;;;;;;;;;;;28.25;40.97;97534.22;4203915;28;6552;-77
2022/06/17 05:57:09;;;;;;;;;;;;;;;28.29;40.83;97527.13;4197185;28;5782;-76
2022/06/17 05:59:12;;;;;;;;;;;;;;;28.36;40.84;97522.16;4186776;28;5718;-76
2022/06/17 06:01:15;;;;;;;;;;;;;;;28.46;40.72;97518.50;4187299;28;5718;-75
2022/06/17 06:03:24;;;;;;;;;;;;;;;28.50;40.77;97524.16;4188681;28;5738;-76
2022/06/17 06:05:31;;;;;;;;;;;;;;;28.57;40.46;97533.59;4203695;28;5788;-77
2022/06/17 06:07:34;;;;;;;;;;;;;;;28.64;40.33;97528.59;4203323;28;5707;-77
2022/06/17 06:09:38;;;;;;;;;;;;;;;28.64;40.26;97527.78;4203463;28;5777;-77
2022/06/17 06:11:44;;;;;;;;;;;;;;;28.66;40.19;97531.03;4201905;28;5726;-76
2022/06/17 06:13:50;;;;;;;;;;;;;;;28.71;40.06;97537.22;4189021;28;6486;-77
2022/06/17 06:15:55;;;;;;;;;;;;;;;28.74;40.06;97541.25;4202854;28;5693;-77
2022/06/17 06:17:58;;;;;;;;;;;;;;;28.76;39.94;97538.25;4202855;28;5826;-77
2022/06/17 06:20:03;;;;;;;;;;;;;;;28.77;39.74;97532.53;4199687;28;5968;-77
2022/06/17 06:22:06;;;;;;;;;;;;;;;28.81;39.83;97538.19;4188810;28;5718;-76
2022/06/17 06:24:09;;;;;;;;;;;;;;;28.83;39.76;97536.78;4185992;28;5798;-76
2022/06/17 06:26:18;;;;;;;;;;;;;;;28.89;39.59;97524.78;4186018;28;5850;-76
2022/06/17 06:28:27;;;;;;;;;;;;;;;28.87;39.58;97537.81;4195779;28;5700;-75
2022/06/17 06:30:31;;;;;;;;;;;;;;;28.93;39.41;97531.25;4195595;28;5698;-77
2022/06/17 06:32:34;;;;;;;;;;;;;;;28.98;39.33;97539.31;4194762;28;5771;-76
2022/06/17 06:34:37;;;;;;;;;;;;;;;29.04;39.20;97531.09;4202076;28;6636;-76
2022/06/17 06:36:42;;;;;;;;;;;;;;;29.06;39.22;97528.88;4186765;28;5714;-76
2022/06/17 06:38:45;;;;;;;;;;;;;;;29.04;39.40;97528.38;4185993;28;5702;-76
2022/06/17 06:40:48;;;;;;;;;;;;;;;28.99;39.39;97523.81;4189405;28;5818;-76
2022/06/17 06:42:52;;;;;;;;;;;;;;;28.99;39.28;97524.63;4194816;28;5863;-67
2022/06/17 06:44:57;;;;;;;;;;;;;;;29.05;39.20;97535.44;4201600;28;5776;-67
2022/06/17 06:47:01;;;;;;;;;;;;;;;29.10;39.42;97540.78;4195191;28;5726;-68
2022/06/17 06:49:04;;;;;;;;;;;;;;;29.14;39.27;97544.56;4184731;28;5735;-68
2022/06/17 06:51:07;;;;;;;;;;;;;;;29.20;39.23;97537.94;4189071;28;5859;-68
2022/06/17 06:53:12;;;;;;;;;;;;;;;29.25;39.28;97538.66;4200230;28;5689;-68
2022/06/17 06:55:17;;;;;;;;;;;;;;;29.29;39.40;97541.59;4199151;28;6375;-68
2022/06/17 06:57:20;;;;;;;;;;;;;;;29.36;39.52;97544.78;4204318;28;5680;-67
2022/06/17 06:59:33;;;;;;;;;;;;;;;29.40;39.43;97540.34;4184750;28;5723;-69
2022/06/17 07:01:36;;;;;;;;;;;;;;;29.39;39.32;97538.72;4192789;28;5836;-67
2022/06/17 07:03:39;;;;;;;;;;;;;;;29.40;39.26;97539.53;4201262;28;5737;-67
2022/06/17 07:05:45;;;;;;;;;;;;;;;29.40;39.56;97539.53;4193404;28;5722;-68
2022/06/17 07:07:49;;;;;;;;;;;;;;;29.34;39.46;97541.53;4184677;28;5718;-68
2022/06/17 07:09:53;;;;;;;;;;;;;;;29.27;39.83;97546.53;4184544;28;5821;-66
2022/06/17 07:11:56;;;;;;;;;;;;;;;29.13;39.94;97541.03;4184780;28;6400;-68
2022/06/17 07:13:59;;;;;;;;;;;;;;;29.10;40.02;97538.88;4196868;28;5696;-67
2022/06/17 07:16:07;;;;;;;;;;;;;;;29.11;40.03;97548.69;4199592;28;5705;-67
2022/06/17 07:18:14;;;;;;;;;;;;;;;29.06;40.24;97545.22;4188373;28;5714;-67
2022/06/17 07:20:20;;;;;;;;;;;;;;;28.98;40.32;97555.66;4193807;28;5686;-68
2022/06/17 07:22:23;;;;;;;;;;;;;;;28.95;40.33;97553.53;4200941;28;5693;-68
2022/06/17 07:24:26;;;;;;;;;;;;;;;28.90;40.57;97548.16;4187392;28;7404;-67
2022/06/17 07:26:32;;;;;;;;;;;;;;;28.86;40.49;97547.09;4183145;28;5846;-67
2022/06/17 07:28:36;;;;;;;;;;;;;;;28.84;40.37;97552.00;4182564;28;5742;-68
2022/06/17 07:30:39;;;;;;;;;;;;;;;28.87;40.55;97556.84;4184129;28;5766;-67
2022/06/17 07:32:42;;;;;;;;;;;;;;;28.85;40.54;97553.63;4184054;28;5834;-67
2022/06/17 07:34:46;;;;;;;;;;;;;;;28.80;40.74;97551.00;4184166;28;5715;-67
2022/06/17 07:41:37;;;;;;;;;;;;;;;28.72;40.98;97557.06;4184044;28;5817;-67
2022/06/17 07:43:41;;;;;;;;;;;;;;;28.68;41.03;97556.03;4183663;28;5786;-67
2022/06/17 07:45:56;;;;;;;;;;;;;;;28.70;41.14;97562.00;4184464;28;5799;-66
2022/06/17 07:48:01;;;;;;;;;;;;;;;28.65;41.23;97552.00;4184217;28;5882;-68
2022/06/17 07:50:07;;;;;;;;;;;;;;;28.62;41.34;97552.56;4182849;28;5840;-67
2022/06/17 07:52:10;;;;;;;;;;;;;;;28.61;41.37;97550.94;4184033;28;5857;-66
2022/06/17 07:54:15;;;;;;;;;;;;;;;28.59;41.40;97552.34;4183810;28;5746;-67
2022/06/17 07:56:19;;;;;;;;;;;;;;;28.58;41.50;97542.56;4183675;28;5726;-66
2022/06/17 07:58:23;;;;;;;;;;;;;;;28.55;41.51;97540.44;4196281;28;5785;-67
2022/06/17 08:00:29;;;;;;;;;;;;;;;28.55;41.51;97535.00;4200516;28;5686;-67
2022/06/17 08:02:33;;;;;;;;;;;;;;;28.47;41.49;97527.47;4200501;28;5772;-66
2022/06/17 08:04:38;;;;;;;;;;;;;;;28.41;41.50;97524.81;4200377;28;5729;-67
2022/06/17 08:06:41;;;;;;;;;;;;;;;28.35;41.55;97525.97;4198878;28;5954;-67
2022/06/17 08:08:48;;;;;;;;;;;;;;;28.33;41.43;97528.19;4200300;28;5689;-68
2022/06/17 08:10:52;;;;;;;;;;;;;;;28.39;41.51;97527.00;4200179;28;5764;-67
2022/06/17 08:12:56;;;;;;;;;;;;;;;28.42;41.34;97529.13;4200115;28;5077;-67
2022/06/17 08:15:01;;;;;;;;;;;;;;;28.39;41.29;97535.16;4200215;28;5541;-68
2022/06/17 08:17:04;;;;;;;;;;;;;;;28.37;41.11;97534.66;4199571;28;5721;-67
2022/06/17 08:19:11;;;;;;;;;;;;;;;28.41;41.20;97530.25;4200093;28;5823;-67
2022/06/17 08:21:14;;;;;;;;;;;;;;;28.39;41.25;97532.44;4200227;28;5764;-67
2022/06/17 08:23:37;;;;;;;;;;;;;;;28.40;41.31;97527.81;4200196;28;5701;-67
2022/06/17 08:25:40;;;;;;;;;;;;;;;28.44;41.23;97528.06;4199899;28;5693;-67
2022/06/17 08:27:45;;;;;;;;;;;;;;;28.40;41.19;97528.63;4200373;28;5689;-67
2022/06/17 08:29:48;;;;;;;;;;;;;;;28.41;41.20;97530.25;4200349;28;5878;-67
2022/06/17 08:31:54;;;;;;;;;;;;;;;28.46;41.01;97525.84;4200297;28;5768;-67
2022/06/17 08:33:57;;;;;;;;;;;;;;;28.48;41.19;97524.47;4199170;28;5788;-68
2022/06/17 08:36:06;;;;;;;;;;;;;;;28.43;41.44;97524.53;4200171;28;5776;-68
2022/06/17 08:38:14;;;;;;;;;;;;;;;28.34;41.47;97529.78;4200225;28;5701;-68
2022/06/17 08:40:35;;;;;;;;;;;;;;;28.26;41.40;97514.09;4198879;28;5824;-68
2022/06/17 08:42:47;;;;;;;;;;;;;;;28.24;41.46;97524.44;4200313;28;5689;-68
2022/06/17 08:45:03;;;;;;;;;;;;;;;28.23;41.38;97522.00;4203230;28;5700;-68
2022/06/17 08:47:38;;;;;;;;;;;;;;;28.16;41.37;97524.25;4202833;28;5696;-67
2022/06/17 08:49:56;;;;;;;;;;;;;;;28.04;41.46;97514.59;4203162;28;5788;-68
2022/06/17 08:52:21;;;;;;;;;;;;;;;28.00;41.79;97516.28;4203349;28;5701;-68
2022/06/17 08:54:41;;;;;;;;;;;;;;;28.07;41.63;97507.75;4203202;28;5692;-67
2022/06/17 08:57:11;;;;;;;;;;;;;;;28.10;41.39;97508.03;4202993;28;6367;-67
2022/06/17 08:59:32;;;;;;;;;;;;;;;28.13;41.59;97501.19;4118961;28;5819;-67
2022/06/17 09:01:47;;;;;;;;;;;;;;;28.19;41.38;97504.66;4118965;28;5979;-67
2022/06/17 09:04:07;;;;;;;;;;;;;;;28.23;41.46;97505.72;4119352;28;5975;-67
2022/06/17 09:06:23;;;;;;;;;;;;;;;28.30;41.40;97501.53;4118934;28;8359;-67
2022/06/17 09:09:06;;;;;;;;;;;;;;;28.35;41.31;97498.78;4119097;28;5824;-67
2022/06/17 09:11:18;;;;;;;;;;;;;;;28.32;41.33;97491.22;4119130;28;5816;-67
2022/06/17 09:13:33;;;;;;;;;;;;;;;28.31;41.17;97497.72;4118826;28;5840;-67
2022/06/17 09:15:41;;;;;;;;;;;;;;;28.36;41.34;97488.72;4119010;28;5876;-67
2022/06/17 09:17:55;;;;;;;;;;;;;;;28.39;41.23;97491.66;4118894;28;5827;-67
2022/06/17 09:20:04;;;;;;;;;;;;;;;28.41;41.07;97497.59;4118821;28;5827;-67
2022/06/17 09:22:12;;;;;;;;;;;;;;;28.44;41.27;97498.97;4118924;28;5907;-68
2022/06/17 09:24:21;;;;;;;;;;;;;;;28.46;41.08;97498.66;4119064;28;5943;-67
2022/06/17 09:26:29;;;;;;;;;;;;;;;28.47;41.25;97503.00;4118804;28;5820;-67
2022/06/17 09:28:37;;;;;;;;;;;;;;;28.48;41.28;97499.19;4118849;28;5844;-68
2022/06/17 09:30:45;;;;;;;;;;;;;;;28.50;41.12;97491.53;4180345;28;5701;-68
2022/06/17 09:32:54;;;;;;;;;;;;;;;28.47;40.77;97484.78;4202444;28;5710;-68
2022/06/17 09:35:04;;;;;;;;;;;;;;;28.46;40.91;97488.59;4202812;28;5982;-68
2022/06/17 09:37:12;;;;;;;;;;;;;;;28.46;40.57;97488.59;4202606;28;5798;-68
2022/06/17 09:39:21;;;;;;;;;;;;;;;28.46;40.73;97495.94;4201220;28;5689;-68
2022/06/17 09:41:29;;;;;;;;;;;;;;;28.49;40.48;97487.19;4202963;28;5700;-66
2022/06/17 09:43:38;;;;;;;;;;;;;;;28.55;40.49;97494.19;4201080;28;5811;-67
2022/06/17 09:45:47;;;;;;;;;;;;;;;28.56;40.34;97495.81;4202567;28;5752;-67
2022/06/17 09:47:58;;;;;;;;;;;;;;;28.55;40.25;97494.19;4202449;28;5693;-67
2022/06/17 09:50:09;;;;;;;;;;;;;;;28.58;40.17;97483.53;4202440;28;5694;-67
2022/06/17 09:52:17;;;;;;;;;;;;;;;28.64;40.07;97485.06;4201070;28;7069;-67
2022/06/17 09:54:26;;;;;;;;;;;;;;;28.67;39.99;97489.13;4202288;28;5760;-67
2022/06/17 09:56:35;;;;;;;;;;;;;;;28.66;39.79;97488.31;4202235;28;5710;-68
2022/06/17 09:58:41;;;;;;;;;;;;;;;28.65;39.59;97494.03;4205863;28;5829;-68
2022/06/17 10:00:49;;;;;;;;;;;;;;;28.67;39.86;97500.03;4219213;28;5679;-68
2022/06/17 10:02:55;;;;;;;;;;;;;;;28.70;39.54;97499.44;4218740;28;5675;-67
2022/06/17 10:05:01;;;;;;;;;;;;;;;28.69;39.65;97489.66;4218853;28;5672;-67
2022/06/17 10:07:22;;;;;;;;;;;;;;;28.68;39.41;97501.63;4218786;28;5692;-67
2022/06/17 10:09:40;;;;;;;;;;;;;;;28.65;39.58;97494.88;4218910;28;5676;-68
2022/06/17 10:11:52;;;;;;;;;;;;;;;28.62;39.66;97497.34;4217660;28;7694;-68
2022/06/17 10:14:13;;;;;;;;;;;;;;;28.64;39.36;97490.50;4218433;28;5668;-67
2022/06/17 10:19:04;;;;;;;;;;;;;;;28.64;39.32;97495.13;4185253;28;5727;-67
2022/06/17 10:21:22;;;;;;;;;;;;;;;28.66;39.31;97498.41;4185444;28;5793;-69
2022/06/17 10:23:36;;;;;;;;;;;;;;;28.69;39.50;97492.38;4185233;28;5734;-68
2022/06/17 10:25:51;;;;;;;;;;;;;;;28.72;39.29;97494.50;4185055;28;5717;-68
2022/06/17 10:28:06;;;;;;;;;;;;;;;28.74;39.44;97489.56;4184934;28;5837;-66
2022/06/17 10:30:11;;;;;;;;;;;;;;;28.80;39.54;97487.59;4193608;28;5893;-66
2022/06/17 10:32:15;;;;;;;;;;;;;;;28.81;39.83;97495.47;4200930;28;5696;-67
2022/06/17 10:34:21;;;;;;;;;;;;;;;28.83;39.64;97498.69;4189038;28;5707;-67
2022/06/17 10:36:25;;;;;;;;;;;;;;;28.84;39.75;97499.50;4185167;28;5774;-65
2022/06/17 10:38:33;;;;;;;;;;;;;;;28.83;39.67;97489.72;4184942;28;5714;-66
2022/06/17 10:40:38;;;;;;;;;;;;;;;28.87;39.65;97483.38;4186091;28;5689;-68
2022/06/17 10:42:46;;;;;;;;;;;;;;;28.88;39.80;97486.94;4188709;28;5701;-67
2022/06/17 10:44:52;;;;;;;;;;;;;;;28.90;39.94;97488.28;4193807;28;5722;-68
2022/06/17 10:47:00;;;;;;;;;;;;;;;28.93;40.15;97484.97;4194927;28;5706;-67
2022/06/17 10:49:10;;;;;;;;;;;;;;;28.94;40.27;97489.31;4201653;28;5764;-67
2022/06/17 10:51:14;;;;;;;;;;;;;;;28.94;40.10;97489.31;4200001;28;5803;-67
2022/06/17 10:53:24;;;;;;;;;;;;;;;28.93;39.70;97493.13;4201179;28;5820;-67
2022/06/17 10:55:32;;;;;;;;;;;;;;;28.94;39.92;97483.88;4201064;28;5673;-67
2022/06/17 10:57:37;;;;;;;;;;;;;;;28.99;39.68;97485.69;4198120;28;5689;-67
2022/06/17 10:59:43;;;;;;;;;;;;;;;28.97;39.74;97477.81;4208266;28;5680;-67
2022/06/17 11:01:54;;;;;;;;;;;;;;;28.99;39.74;97485.69;4218267;28;5676;-67
2022/06/17 11:04:12;;;;;;;;;;;;;;;29.03;39.76;97484.03;4184543;28;5722;-68
2022/06/17 11:06:18;;;;;;;;;;;;;;;29.03;39.81;97485.94;4192760;28;5726;-67
2022/06/17 11:08:24;;;;;;;;;;;;;;;29.01;39.73;97485.44;4184482;28;5718;-67
2022/06/17 11:10:30;;;;;;;;;;;;;;;29.02;39.56;97489.75;4194200;28;5789;-67
2022/06/17 11:12:37;;;;;;;;;;;;;;;29.01;39.60;97483.50;4199357;28;5810;-67
2022/06/17 11:14:53;;;;;;;;;;;;;;;29.02;39.56;97481.59;4201065;28;5800;-67
2022/06/17 11:16:57;;;;;;;;;;;;;;;29.00;39.41;97481.91;4191479;28;5722;-67
2022/06/17 11:19:03;;;;;;;;;;;;;;;29.01;39.38;97497.13;4184510;28;5798;-67
2022/06/17 11:21:10;;;;;;;;;;;;;;;29.02;39.45;97492.47;4184129;28;5782;-68
2022/06/17 11:23:20;;;;;;;;;;;;;;;29.04;39.36;97484.81;4184365;28;5996;-68
2022/06/17 11:25:28;;;;;;;;;;;;;;;29.06;39.24;97474.44;4184232;28;5713;-67
2022/06/17 11:27:39;;;;;;;;;;;;;;;29.09;39.20;97476.56;4183038;28;5888;-68
2022/06/17 11:29:45;;;;;;;;;;;;;;;29.12;39.25;97476.00;4183749;28;5706;-67
2022/06/17 11:31:49;;;;;;;;;;;;;;;29.15;39.19;97470.75;4189012;28;5701;-67
2022/06/17 11:33:59;;;;;;;;;;;;;;;29.20;39.35;97475.31;4200007;28;5681;-67
2022/06/17 11:36:06;;;;;;;;;;;;;;;29.21;39.25;97471.47;4200375;28;5835;-67
2022/06/17 11:38:15;;;;;;;;;;;;;;;29.24;39.10;97473.63;4197569;28;5978;-66
2022/06/17 11:40:50;;;;;;;;;;;;;;;29.24;39.22;97474.44;4187882;28;5699;-67
2022/06/17 11:42:56;;;;;;;;;;;;;;;29.30;39.17;97466.97;4196209;28;5709;-68
2022/06/17 11:45:02;;;;;;;;;;;;;;;29.35;39.23;97468.81;4189127;28;5809;-68
2022/06/17 11:47:05;;;;;;;;;;;;;;;29.35;39.16;97466.91;4184136;28;5726;-68
2022/06/17 11:49:13;;;;;;;;;;;;;;;29.38;39.21;97460.03;4183909;28;5722;-68
2022/06/17 11:51:19;;;;;;;;;;;;;;;29.39;39.16;97456.22;4185019;28;5796;-68
2022/06/17 11:53:24;;;;;;;;;;;;;;;29.40;39.06;97458.63;4183787;28;5722;-67
2022/06/17 11:55:27;;;;;;;;;;;;;;;29.41;39.05;97459.44;4183731;28;5809;-68
2022/06/17 11:57:55;;;;;;;;;;;;;;;29.39;39.13;97448.84;4188979;28;5705;-66
2022/06/17 12:00:07;;;;;;;;;;;;;;;29.40;39.00;97447.75;4185235;28;5762;-68
2022/06/17 12:02:11;;;;;;;;;;;;;;;29.41;39.14;97441.19;4186601;28;5685;-67
2022/06/17 12:04:33;;;;;;;;;;;;;;;29.44;38.76;97442.50;4200213;28;5697;-66
2022/06/17 12:06:45;;;;;;;;;;;;;;;29.46;39.08;97445.75;4198715;28;5892;-67
2022/06/17 12:08:53;;;;;;;;;;;;;;;29.48;38.88;97446.28;4197752;28;5891;-67
2022/06/17 12:10:59;;;;;;;;;;;;;;;29.50;39.13;97435.91;4185875;28;5853;-67
2022/06/17 12:13:11;;;;;;;;;;;;;;;29.51;39.16;97430.16;4189605;28;5726;-68
2022/06/17 12:15:22;;;;;;;;;;;;;;;29.55;38.75;97427.63;4183610;28;5719;-67
2022/06/17 12:17:25;;;;;;;;;;;;;;;29.56;38.92;97421.91;4183803;28;5798;-67
2022/06/17 12:19:30;;;;;;;;;;;;;;;29.60;38.98;97424.00;4184773;28;5726;-68
2022/06/17 12:21:46;;;;;;;;;;;;;;;29.62;39.17;97414.41;4186589;28;5782;-67
2022/06/17 12:23:54;;;;;;;;;;;;;;;29.65;38.81;97410.28;4189832;28;5697;-69
2022/06/17 12:26:03;;;;;;;;;;;;;;;29.65;38.92;97399.38;4203161;28;5710;-68
2022/06/17 12:28:18;;;;;;;;;;;;;;;29.69;39.03;97408.59;4200133;28;6030;-68
2022/06/17 12:30:28;;;;;;;;;;;;;;;29.70;38.72;97402.03;4185989;28;5726;-69
2022/06/17 12:32:38;;;;;;;;;;;;;;;29.75;38.83;97404.63;4192595;28;5719;-67
2022/06/17 12:34:48;;;;;;;;;;;;;;;29.76;38.79;97401.59;4185499;28;5699;-68
2022/06/17 12:36:54;;;;;;;;;;;;;;;29.78;38.70;97404.84;4190924;28;5764;-66
2022/06/17 12:39:02;;;;;;;;;;;;;;;29.80;38.54;97399.09;4191184;28;5837;-67
2022/06/17 12:41:14;;;;;;;;;;;;;;;29.79;38.41;97397.50;4205506;28;5683;-68
2022/06/17 12:43:27;;;;;;;;;;;;;;;29.85;38.64;97399.00;4206598;28;5859;-67
2022/06/17 12:45:39;;;;;;;;;;;;;;;29.90;38.55;97400.78;4207145;28;6355;-67
2022/06/17 12:47:58;;;;;;;;;;;;;;;29.93;38.66;97398.28;4201160;28;5704;-66
2022/06/17 12:55:25;;;;;;;;;;;;;;;29.92;38.63;97395.88;4200331;28;7708;-68
2022/06/17 12:57:39;;;;;;;;;;;;;;;29.92;38.45;97393.16;4207986;28;5823;-67
2022/06/17 12:59:54;;;;;;;;;;;;;;;29.93;38.34;97389.31;4202992;28;5747;-67
2022/06/17 13:02:07;;;;;;;;;;;;;;;29.96;38.33;97388.69;4201939;28;5756;-68
2022/06/17 13:04:40;;;;;;;;;;;;;;;29.99;38.15;97391.63;4205363;28;5804;-67
2022/06/17 13:06:56;;;;;;;;;;;;;;;30.01;38.21;97386.66;4206427;28;6053;-68
2022/06/17 13:09:08;;;;;;;;;;;;;;;30.01;38.16;97391.31;4199084;28;5772;-68
2022/06/17 13:11:20;;;;;;;;;;;;;;;30.05;37.99;97393.13;4204052;28;5070;-68
2022/06/17 13:13:55;;;;;;;;;;;;;;;30.07;38.00;97396.38;4202017;28;5840;-66
2022/06/17 13:16:05;;;;;;;;;;;;;;;30.09;38.10;97387.91;4198089;28;5689;-67
2022/06/17 13:18:12;;;;;;;;;;;;;;;30.08;38.01;97387.09;4197250;28;5735;-67
2022/06/17 13:20:23;;;;;;;;;;;;;;;30.09;37.95;97377.81;4200243;28;5682;-68
2022/06/17 13:22:34;;;;;;;;;;;;;;;30.13;37.95;97373.38;4202157;28;5689;-67
2022/06/17 13:24:44;;;;;;;;;;;;;;;30.16;37.87;97377.41;4208998;28;5848;-67
2022/06/17 13:26:54;;;;;;;;;;;;;;;30.19;37.87;97382.25;4204907;28;5760;-67
2022/06/17 13:29:03;;;;;;;;;;;;;;;30.20;37.84;97378.41;4198647;28;5785;-66
2022/06/17 13:31:14;;;;;;;;;;;;;;;30.22;37.47;97383.53;4212164;28;5811;-67
2022/06/17 13:33:21;;;;;;;;;;;;;;;30.22;37.73;97375.34;4218168;28;6361;-67
2022/06/17 13:35:30;;;;;;;;;;;;;;;30.25;37.45;97372.84;4198570;28;5717;-67
2022/06/17 13:37:38;;;;;;;;;;;;;;;30.27;37.70;97372.53;4199880;28;5811;-68
2022/06/17 13:39:45;;;;;;;;;;;;;;;30.30;37.32;97366.47;4197974;28;5910;-66
2022/06/17 13:41:59;;;;;;;;;;;;;;;30.30;37.40;97370.00;4203156;28;5686;-67
2022/06/17 13:44:12;;;;;;;;;;;;;;;30.32;37.20;97364.22;4192387;28;5808;-67
2022/06/17 13:46:25;;;;;;;;;;;;;;;30.35;37.24;97360.88;4210066;28;6563;-67
2022/06/17 13:48:34;;;;;;;;;;;;;;;30.36;37.05;97366.06;4201895;28;5696;-68
2022/06/17 13:50:46;;;;;;;;;;;;;;;30.39;37.08;97364.63;4202245;28;5402;-67
2022/06/17 13:53:04;;;;;;;;;;;;;;;30.39;37.18;97359.16;4201781;28;5780;-67
2022/06/17 13:55:28;;;;;;;;;;;;;;;30.40;36.97;97361.59;4188386;28;5793;-67
2022/06/17 13:57:33;;;;;;;;;;;;;;;30.42;36.90;97356.63;4193654;28;5710;-66
2022/06/17 13:59:40;;;;;;;;;;;;;;;30.43;36.89;97354.69;4195781;28;5892;-66
2022/06/17 14:01:47;;;;;;;;;;;;;;;30.48;36.74;97360.06;4193998;28;5899;-66
2022/06/17 14:04:13;;;;;;;;;;;;;;;30.49;36.91;97353.50;4192922;28;5705;-67
2022/06/17 14:06:30;;;;;;;;;;;;;;;30.50;36.80;97349.63;4187181;28;5937;-66
2022/06/17 14:08:51;;;;;;;;;;;;;;;30.54;36.62;97355.28;4191867;28;5792;-67
2022/06/17 14:11:34;;;;;;;;;;;;;;;30.56;36.84;97356.56;4195751;28;6604;-66
2022/06/17 14:13:38;;;;;;;;;;;;;;;30.57;36.74;97355.47;4182216;28;5935;-67
2022/06/17 14:15:48;;;;;;;;;;;;;;;30.56;36.83;97353.84;4186077;28;5987;-66
2022/06/17 14:17:57;;;;;;;;;;;;;;;30.60;36.65;97352.13;4189861;28;5812;-66
2022/06/17 14:20:26;;;;;;;;;;;;;;;30.62;36.70;97357.28;4190735;28;5825;-68
2022/06/17 14:22:35;;;;;;;;;;;;;;;30.60;36.43;97354.88;4181869;28;5798;-67
2022/06/17 14:24:59;;;;;;;;;;;;;;;30.58;36.33;97348.09;4194842;28;5880;-67
2022/06/17 14:27:03;;;;;;;;;;;;;;;30.58;36.32;97348.09;4170550;28;5814;-67
2022/06/17 14:29:14;;;;;;;;;;;;;;;30.58;36.27;97351.66;4181671;28;5813;-67
2022/06/17 14:31:34;;;;;;;;;;;;;;;30.58;36.33;97348.91;4182584;28;7777;-68
2022/06/17 14:34:04;;;;;;;;;;;;;;;30.59;36.19;97357.91;4193572;28;5812;-66
2022/06/17 14:36:15;;;;;;;;;;;;;;;30.58;36.12;97348.09;4189044;28;5860;-67
2022/06/17 14:38:22;;;;;;;;;;;;;;;30.58;35.96;97350.81;4204004;28;5851;-67
2022/06/17 14:40:28;;;;;;;;;;;;;;;30.58;35.68;97351.66;4187066;28;5715;-67
2022/06/17 14:42:45;;;;;;;;;;;;;;;30.59;35.68;97352.44;4198535;28;5803;-67
2022/06/17 14:44:51;;;;;;;;;;;;;;;30.60;35.53;97352.13;4197021;28;5784;-67
2022/06/17 14:47:27;;;;;;;;;;;;;;;30.61;35.66;97340.09;4195936;28;5784;-67
2022/06/17 14:49:43;;;;;;;;;;;;;;;30.62;35.39;97341.72;4199299;28;5725;-68
2022/06/17 14:51:47;;;;;;;;;;;;;;;30.67;35.31;97347.06;4202604;28;5687;-67
2022/06/17 14:53:52;;;;;;;;;;;;;;;30.70;35.22;97348.41;4200141;28;5780;-67
2022/06/17 14:56:08;;;;;;;;;;;;;;;30.73;35.39;97336.84;4204617;28;5809;-67
2022/06/17 14:58:15;;;;;;;;;;;;;;;30.72;35.20;97343.44;4205265;28;7447;-68
2022/06/17 15:00:20;;;;;;;;;;;;;;;30.71;35.47;97350.81;4185487;28;5856;-67
2022/06/17 15:02:38;;;;;;;;;;;;;;;30.71;35.07;97344.53;4191846;28;5817;-66
2022/06/17 15:04:46;;;;;;;;;;;;;;;30.73;35.02;97341.50;4190638;28;5709;-67
2022/06/17 15:06:53;;;;;;;;;;;;;;;30.71;35.15;97342.63;4197950;28;5929;-67
2022/06/17 15:08:57;;;;;;;;;;;;;;;30.70;34.94;97338.28;4183270;28;5844;-67
2022/06/17 15:11:07;;;;;;;;;;;;;;;30.67;35.01;97336.16;4196175;28;5804;-66
2022/06/17 15:15:42;;;;;;;;;;;;;;;30.65;34.97;97334.84;4185346;28;5850;-66
2022/06/17 15:17:48;;;;;;;;;;;;;;;30.64;35.03;97334.06;4195399;28;5784;-67
2022/06/17 15:19:53;;;;;;;;;;;;;;;30.63;35.00;97331.59;4193501;28;5792;-66
2022/06/17 15:21:59;;;;;;;;;;;;;;;30.63;34.73;97329.72;4188194;28;6609;-66
2022/06/17 15:24:15;;;;;;;;;;;;;;;30.64;34.77;97339.50;4194618;28;5900;-66
2022/06/17 15:26:25;;;;;;;;;;;;;;;30.62;35.00;97338.97;4190952;28;5796;-67
2022/06/17 15:28:33;;;;;;;;;;;;;;;30.61;34.73;97333.84;4188176;28;5800;-67
2022/06/17 15:30:47;;;;;;;;;;;;;;;30.59;34.99;97322.44;4185617;28;5784;-67
2022/06/17 15:32:54;;;;;;;;;;;;;;;30.63;34.90;97316.06;4182124;28;5907;-68
2022/06/17 15:34:58;;;;;;;;;;;;;;;30.70;34.94;97315.66;4191996;28;5889;-67
2022/06/17 15:37:01;;;;;;;;;;;;;;;30.73;34.79;97319.66;4187008;28;5822;-67
2022/06/17 15:39:16;;;;;;;;;;;;;;;30.73;34.67;97314.22;4183910;28;5853;-67
2022/06/17 15:41:26;;;;;;;;;;;;;;;30.73;34.55;97308.75;4185713;28;5851;-67
2022/06/17 15:43:29;;;;;;;;;;;;;;;30.75;34.74;97311.97;4195175;28;5891;-67